Time;durP1;ratioP1;P1;durP2;ratioP2;P2;SDS_P1;SDS_P2;PMS_P1;PMS_P2;Temp;Humidity;BMP_temperature;BMP_pressure;BME280_temperature;BME280_humidity;BME280_pressure;Samples;Min_cycle;Max_cycle;Signal;HPM_P1;HPM_P2
2021/01/21 00:00:28;;;;;;;13.80;5.07;;;;;;;0.22;80.45;93771.22;5131665;27;20569;-88
2021/01/21 00:02:54;;;;;;;8.70;5.05;;;;;;;0.23;80.27;93772.03;5131515;27;20043;-88
2021/01/21 00:05:20;;;;;;;;;;;;;;;0.27;79.41;93770.81;5132145;27;20039;-89
2021/01/21 00:07:47;;;;;;;6.32;3.67;;;;;;;0.19;80.93;93768.16;5131473;27;19926;-89
2021/01/21 00:10:14;;;;;;;16.23;4.63;;;;;;;0.07;80.50;93754.84;5131380;27;20039;-88
2021/01/21 00:12:40;;;;;;;;;;;;;;;0.20;79.40;93775.63;5131983;27;20047;-88
2021/01/21 00:15:06;;;;;;;5.05;3.03;;;;;;;0.16;79.36;93774.28;5131440;27;19919;-88
2021/01/21 00:17:32;;;;;;;4.95;2.72;;;;;;;0.03;79.94;93772.00;5131550;27;20406;-88
2021/01/21 00:19:58;;;;;;;;;;;;;;;0.10;80.20;93772.28;5131887;27;20047;-89
2021/01/21 00:22:25;;;;;;;7.75;3.67;;;;;;;-0.08;81.39;93775.44;5130923;27;19915;-88
2021/01/21 00:24:52;;;;;;;;;;;;;;;0.01;80.01;93773.84;5131825;28;20394;-88
2021/01/21 00:27:18;;;;;;;9.88;3.42;;;;;;;-0.20;81.35;93774.75;5130986;28;19942;-88
2021/01/21 00:29:44;;;;;;;;;;;;;;;-0.19;80.51;93766.22;5131727;28;20068;-88
2021/01/21 00:32:10;;;;;;;6.97;3.00;;;;;;;-0.26;81.75;93767.69;5131409;28;19915;-88
2021/01/21 00:34:36;;;;;;;10.57;5.63;;;;;;;-0.25;82.67;93769.28;5131229;27;20046;-89
2021/01/21 00:37:02;;;;;;;6.72;3.75;;;;;;;-0.22;83.67;93770.75;5131317;28;20050;-89
2021/01/21 00:39:28;;;;;;;;;;;;;;;-0.19;83.73;93766.22;5132131;28;20066;-89
2021/01/21 00:41:55;;;;;;;5.30;3.10;;;;;;;-0.22;83.03;93770.75;5131113;28;20355;-88
2021/01/21 00:44:22;;;;;;;4.78;2.95;;;;;;;-0.18;82.03;93759.47;5131167;27;20628;-88
2021/01/21 00:46:47;;;;;;;;;;;;;;;-0.29;81.39;93768.75;5131616;27;20047;-89
2021/01/21 00:49:14;;;;;;;3.67;2.75;;;;;;;-0.19;80.26;93761.19;5133571;27;19922;-89
2021/01/21 00:51:40;;;;;;;12.18;4.57;;;;;;;-0.43;81.93;93759.81;5135044;27;20043;-88
2021/01/21 00:54:06;;;;;;;7.30;3.28;;;;;;;-0.66;83.29;93761.72;5134746;27;20088;-88
2021/01/21 00:56:32;;;;;;;7.18;3.38;;;;;;;-0.79;84.29;93756.09;5134729;27;20043;-89
2021/01/21 00:58:59;;;;;;;6.00;3.28;;;;;;;-0.70;83.83;93760.34;5134896;27;20042;-88
2021/01/21 01:01:26;;;;;;;11.48;4.25;;;;;;;-0.78;84.44;93747.59;5134703;27;20039;-88
2021/01/21 01:03:52;;;;;;;13.27;3.83;;;;;;;-0.70;84.05;93741.00;5134734;27;20035;-88
2021/01/21 01:06:18;;;;;;;;;;;;;;;-0.70;83.57;93751.06;5135054;27;20051;-89
2021/01/21 01:08:44;;;;;;;5.47;2.97;;;;;;;-0.74;84.13;93743.91;5134416;27;19922;-89
2021/01/21 01:11:10;;;;;;;5.93;3.88;;;;;;;-0.74;83.95;93734.59;5134694;27;20084;-89
2021/01/21 01:13:36;;;;;;;;;;;;;;;-0.71;83.98;93731.81;5135118;27;20088;-88
2021/01/21 01:16:04;;;;;;;6.07;3.17;;;;;;;-0.72;83.84;93729.44;5134407;27;19919;-88
2021/01/21 01:18:31;;;;;;;9.82;3.53;;;;;;;-0.63;83.77;93725.34;5134683;27;20523;-88
2021/01/21 01:20:57;;;;;;;22.30;7.32;;;;;;;-0.55;83.73;93716.19;5134262;27;20039;-88
2021/01/21 01:23:23;;;;;;;;;;;;;;;-0.47;82.36;93725.66;5134506;27;20047;-88
2021/01/21 01:25:53;;;;;;;4.82;3.22;;;;;;;-0.68;83.43;93715.63;5134482;27;19984;-89
2021/01/21 01:28:19;;;;;;;13.82;4.22;;;;;;;-0.77;84.08;93717.19;5134296;27;20182;-88
2021/01/21 01:30:45;;;;;;;15.30;3.95;;;;;;;-0.66;84.26;93718.03;5134280;27;20043;-88
2021/01/21 01:33:12;;;;;;;;;;;;;;;-0.68;84.20;93718.16;5134547;27;20046;-88
2021/01/21 01:35:38;;;;;;;10.05;3.30;;;;;;;-0.71;83.47;93719.22;5133926;27;19919;-88
2021/01/21 01:38:04;;;;;;;7.40;3.75;;;;;;;-0.81;84.62;93716.66;5133894;27;20043;-89
2021/01/21 01:40:30;;;;;;;;;;;;;;;-0.85;84.86;93722.06;5134488;27;20035;-88
2021/01/21 01:42:57;;;;;;;4.38;2.65;;;;;;;-0.81;84.25;93721.72;5133751;27;20375;-87
2021/01/21 01:45:23;;;;;;;;;;;;;;;-0.68;83.50;93720.69;5134224;27;20043;-89
2021/01/21 01:47:50;;;;;;;4.47;3.10;;;;;;;-0.72;84.35;93730.25;5133813;27;19922;-88
2021/01/21 01:50:17;;;;;;;4.70;1.48;;;;;;;-0.75;84.47;93717.09;5133573;27;20039;-88
2021/01/21 01:52:44;;;;;;;3.15;2.72;;;;;;;-0.76;85.02;93720.50;5133682;27;20047;-88
2021/01/21 01:55:12;;;;;;;132.85;36.90;;;;;;;-0.81;84.93;93706.56;5133588;27;20467;-88
2021/01/21 01:57:39;;;;;;;96.32;23.40;;;;;;;-0.71;85.27;93718.41;5133665;27;20035;-89
2021/01/21 02:00:07;;;;;;;174.75;44.47;;;;;;;-0.57;85.25;93723.09;5133590;27;20043;-88
2021/01/21 02:02:34;;;;;;;83.28;30.42;;;;;;;-0.58;85.12;93708.91;5133437;27;20047;-88
2021/01/21 02:05:00;;;;;;;;;;;;;;;-0.44;84.91;93711.97;5133756;27;20039;-88
2021/01/21 02:07:27;;;;;;;16.52;8.35;;;;;;;-0.38;85.02;93708.94;5133593;27;19942;-88
2021/01/21 02:09:56;;;;;;;85.53;23.58;;;;;;;-0.37;84.22;93710.53;5133511;27;20035;-88
2021/01/21 02:12:37;;;;;;;38.90;14.90;;;;;;;-0.33;84.30;93701.75;5133419;27;20039;-88
2021/01/21 02:15:08;;;;;;;28.05;7.35;;;;;;;-0.26;83.32;93697.00;5133094;27;20558;-87
2021/01/21 02:17:39;;;;;;;23.60;5.90;;;;;;;-0.14;81.94;93703.50;5133061;27;20413;-87
2021/01/21 02:20:31;;;;;;;13.73;4.20;;;;;;;-0.14;81.03;93707.75;5133367;27;20088;-89
2021/01/21 02:23:36;;;;;;;13.13;3.88;;;;;;;-0.22;81.91;93705.09;5132909;27;20051;-88
2021/01/21 02:26:08;;;;;;;4.82;1.50;;;;;;;-0.20;81.86;93706.56;5132961;27;20088;-88
2021/01/21 02:29:03;;;;;;;3.17;1.73;;;;;;;-0.22;81.98;93708.44;5132918;27;20039;-89
2021/01/21 02:31:45;;;;;;;9.95;3.33;;;;;;;-0.19;82.27;93710.69;5132929;27;20092;-87
2021/01/21 02:34:18;;;;;;;2.22;1.50;;;;;;;-0.15;82.40;93706.97;5132753;27;20052;-88
2021/01/21 02:36:52;;;;;;;4.35;2.50;;;;;;;-0.14;82.56;93705.22;5132808;27;20039;-88
2021/01/21 02:39:20;;;;;;;7.78;3.38;;;;;;;-0.17;82.29;93698.75;5132748;27;20039;-88
2021/01/21 02:41:46;;;;;;;4.40;2.50;;;;;;;-0.09;83.79;93700.59;5132595;27;20050;-88
2021/01/21 02:44:13;;;;;;;3.83;2.28;;;;;;;-0.02;83.53;93695.81;5132709;27;20039;-87
2021/01/21 02:46:39;;;;;;;1.90;1.33;;;;;;;-0.05;80.63;93678.41;5132525;27;20051;-88
2021/01/21 02:49:06;;;;;;;2.45;1.05;;;;;;;0.25;79.93;93692.63;5132821;27;20088;-89
2021/01/21 02:51:40;;;;;;;2.05;1.27;;;;;;;0.23;80.75;93693.69;5132502;27;20051;-88
2021/01/21 02:54:24;;;;;;;5.88;2.78;;;;;;;0.22;81.31;93687.84;5132551;27;20126;-88
2021/01/21 02:56:57;;;;;;;6.13;3.20;;;;;;;0.23;80.80;93686.91;5132212;27;20416;-87
2021/01/21 02:59:31;;;;;;;5.50;2.63;;;;;;;0.14;80.79;93690.25;5132351;27;20047;-88
2021/01/21 03:01:58;;;;;;;7.05;2.95;;;;;;;0.10;80.72;93671.22;5132224;27;20084;-88
2021/01/21 03:04:25;;;;;;;3.67;2.00;;;;;;;0.16;81.02;93695.94;5132223;27;20500;-88
2021/01/21 03:06:57;;;;;;;9.20;3.22;;;;;;;0.10;81.12;93694.75;5132456;27;20039;-88
2021/01/21 03:09:24;;;;;;;8.48;3.10;;;;;;;0.18;81.17;93700.88;5132178;27;20043;-89
2021/01/21 03:11:50;;;;;;;3.78;1.73;;;;;;;0.22;81.36;93694.59;5131715;27;20047;-88
2021/01/21 03:14:16;;;;;;;7.65;2.67;;;;;;;0.36;79.96;93706.84;5132097;27;20039;-88
2021/01/21 03:16:42;;;;;;;12.15;3.55;;;;;;;0.42;79.93;93704.72;5132238;27;20043;-88
2021/01/21 03:19:09;;;;;;;6.13;2.80;;;;;;;0.46;79.76;93703.50;5132194;27;20084;-88
2021/01/21 03:21:35;;;;;;;2.47;1.77;;;;;;;0.45;79.85;93702.72;5131931;27;20406;-88
2021/01/21 03:24:02;;;;;;;5.95;3.17;;;;;;;0.44;79.72;93697.78;5132034;27;20054;-88
2021/01/21 03:26:28;;;;;;;2.83;1.02;;;;;;;0.39;80.50;93691.41;5132007;27;20043;-88
2021/01/21 03:28:54;;;;;;;2.00;1.25;;;;;;;0.42;80.60;93694.59;5132203;27;20043;-87
2021/01/21 03:31:21;;;;;;;1.05;0.55;;;;;;;0.48;79.60;93689.81;5132183;27;20505;-87
2021/01/21 03:33:47;;;;;;;;;;;;;;;0.47;80.17;93695.00;5132498;27;20410;-87
2021/01/21 03:36:13;;;;;;;18.23;1.63;;;;;;;0.42;80.55;93692.88;5131877;27;19915;-87
2021/01/21 03:38:39;;;;;;;1.70;0.90;;;;;;;0.50;79.95;93690.47;5131771;27;20046;-88
2021/01/21 03:41:06;;;;;;;;;;;;;;;0.52;79.87;93692.84;5132435;27;20043;-88
2021/01/21 03:43:32;;;;;;;3.90;1.45;;;;;;;0.40;79.43;93666.94;5131886;27;19930;-88
2021/01/21 03:45:58;;;;;;;1.80;1.00;;;;;;;0.37;80.06;93657.09;5131898;27;20039;-87
2021/01/21 03:48:24;;;;;;;5.70;1.85;;;;;;;0.54;79.67;93685.94;5131840;27;20047;-87
2021/01/21 03:50:51;;;;;;;5.80;1.48;;;;;;;0.58;79.85;93694.84;5131721;28;20047;-87
2021/01/21 03:53:17;;;;;;;3.85;1.13;;;;;;;0.55;80.00;93701.91;5131555;28;20096;-87
2021/01/21 03:55:43;;;;;;;6.10;1.73;;;;;;;0.56;79.27;93698.44;5131451;27;20463;-89
2021/01/21 03:58:10;;;;;;;5.20;1.70;;;;;;;0.52;79.85;93698.69;5131820;27;20043;-87
2021/01/21 04:00:37;;;;;;;3.40;1.25;;;;;;;0.46;80.30;93694.19;5131592;28;20046;-87
2021/01/21 04:03:03;;;;;;;3.33;1.85;;;;;;;0.49;80.45;93690.59;5131584;28;20060;-87
2021/01/21 04:05:29;;;;;;;1.95;0.93;;;;;;;0.50;80.60;93702.28;5131580;27;20043;-87
2021/01/21 04:07:55;;;;;;;;;;;;;;;0.51;80.83;93707.22;5131856;27;20054;-87
2021/01/21 04:10:22;;;;;;;5.72;2.13;;;;;;;0.55;79.50;93702.69;5131735;28;19915;-88
2021/01/21 04:12:48;;;;;;;3.70;1.88;;;;;;;0.61;80.31;93707.19;5131786;27;20047;-87
2021/01/21 04:15:15;;;;;;;1.30;0.80;;;;;;;0.68;79.47;93709.97;5131554;27;20043;-88
2021/01/21 04:17:41;;;;;;;2.05;1.17;;;;;;;0.73;79.14;93712.09;5131363;28;20478;-87
2021/01/21 04:20:08;;;;;;;4.65;1.98;;;;;;;0.72;79.01;93706.25;5131273;28;20817;-88
2021/01/21 04:22:34;;;;;;;5.18;1.15;;;;;;;0.77;79.68;93708.38;5131227;27;20387;-87
2021/01/21 04:25:01;;;;;;;3.03;1.45;;;;;;;0.71;79.43;93713.97;5135322;27;20043;-88
2021/01/21 04:27:27;;;;;;;6.30;1.13;;;;;;;0.66;79.76;93696.69;5135537;27;20111;-87
2021/01/21 04:29:53;;;;;;;;;;;;;;;0.75;79.75;93717.81;5135894;27;20050;-87
2021/01/21 04:32:20;;;;;;;3.60;1.58;;;;;;;0.65;79.65;93716.09;5135311;27;20274;-88
2021/01/21 04:34:46;;;;;;;3.65;1.50;;;;;;;0.50;80.55;93700.56;5135190;27;20043;-87
2021/01/21 04:37:12;;;;;;;3.10;1.40;;;;;;;0.63;80.17;93714.66;5135089;27;20047;-88
2021/01/21 04:39:38;;;;;;;2.92;1.27;;;;;;;0.70;80.22;93719.97;5135099;27;20084;-88
2021/01/21 04:42:05;;;;;;;3.78;2.08;;;;;;;0.71;79.74;93706.38;5135131;27;20047;-87
2021/01/21 04:44:32;;;;;;;2.00;1.05;;;;;;;0.73;80.78;93714.63;5135113;27;20039;-87
2021/01/21 04:46:59;;;;;;;;;;;;;;;0.78;79.67;93713.28;5135449;27;20499;-87
2021/01/21 04:49:28;;;;;;;6.65;1.38;;;;;;;0.61;80.20;93714.00;5134789;27;19915;-88
2021/01/21 04:51:58;;;;;;;1.58;1.23;;;;;;;0.66;80.72;93732.09;5135028;27;20137;-87
2021/01/21 04:54:29;;;;;;;3.13;1.45;;;;;;;0.65;80.82;93726.22;5134766;27;20494;-87
2021/01/21 04:57:00;;;;;;;1.38;1.00;;;;;;;0.69;81.15;93731.03;5134876;27;20096;-88
2021/01/21 04:59:30;;;;;;;3.72;1.23;;;;;;;0.77;81.02;93726.06;5134926;27;20043;-87
2021/01/21 05:01:57;;;;;;;2.95;1.63;;;;;;;0.88;80.46;93728.44;5134531;27;20828;-88
2021/01/21 05:04:24;;;;;;;4.13;1.40;;;;;;;0.91;81.14;93730.69;5134600;27;20036;-87
2021/01/21 05:06:53;;;;;;;3.25;1.45;;;;;;;0.88;80.64;93709.94;5134762;27;20514;-86
2021/01/21 05:09:20;;;;;;;7.00;3.03;;;;;;;1.11;81.43;93723.03;5134725;27;20111;-88
2021/01/21 05:11:47;;;;;;;9.40;4.05;;;;;;;1.20;80.97;93714.63;5134601;27;20047;-87
2021/01/21 05:14:13;;;;;;;7.50;4.63;;;;;;;1.27;80.25;93711.53;5134533;27;20107;-86
2021/01/21 05:16:40;;;;;;;10.93;3.60;;;;;;;1.34;79.97;93717.63;5134215;27;20066;-86
2021/01/21 05:19:06;;;;;;;6.10;3.42;;;;;;;1.35;80.15;93726.03;5134308;27;20039;-86
2021/01/21 05:21:32;;;;;;;6.85;3.15;;;;;;;1.36;80.47;93718.28;5134465;27;20548;-86
2021/01/21 05:24:00;;;;;;;10.02;2.97;;;;;;;1.29;79.99;93717.28;5134289;27;20047;-87
2021/01/21 05:26:26;;;;;;;4.97;1.80;;;;;;;1.32;79.98;93716.97;5134290;27;20050;-87
2021/01/21 05:28:52;;;;;;;;;;;;;;;1.24;79.55;93720.19;5134605;27;20039;-87
2021/01/21 05:31:19;;;;;;;3.80;2.10;;;;;;;1.20;79.67;93712.09;5133990;27;20527;-87
2021/01/21 05:33:46;;;;;;;7.05;2.00;;;;;;;1.21;79.66;93707.84;5133696;27;20081;-87
2021/01/21 05:36:13;;;;;;;6.88;2.25;;;;;;;1.35;79.25;93723.50;5134139;27;20047;-86
2021/01/21 05:38:41;;;;;;;4.70;3.28;;;;;;;1.13;79.26;93695.88;5133986;27;20486;-87
2021/01/21 05:41:09;;;;;;;6.80;3.00;;;;;;;1.32;79.69;93724.56;5134017;27;20092;-87
2021/01/21 05:43:35;;;;;;;13.77;4.43;;;;;;;1.32;79.82;93727.91;5133688;27;20134;-86
2021/01/21 05:46:05;;;;;;;7.40;3.60;;;;;;;1.33;79.27;93726.97;5134003;27;20035;-86
2021/01/21 05:48:32;;;;;;;4.78;2.80;;;;;;;1.27;79.49;93719.13;5133943;27;20035;-87
2021/01/21 05:50:59;;;;;;;7.20;3.30;;;;;;;1.27;79.93;93725.00;5133853;27;20055;-85
2021/01/21 05:53:25;;;;;;;5.32;2.42;;;;;;;1.26;80.46;93728.47;5133782;27;20395;-86
2021/01/21 05:55:51;;;;;;;;;;;;;;;1.18;81.02;93734.22;5134212;27;20039;-85
2021/01/21 05:58:19;;;;;;;2.65;1.75;;;;;;;1.13;81.07;93733.03;5133276;27;19980;-85
2021/01/21 06:00:45;;;;;;;4.97;2.17;;;;;;;1.15;80.37;93726.88;5133810;27;20047;-86
2021/01/21 06:03:12;;;;;;;;;;;;;;;1.17;80.50;93717.41;5134139;27;20043;-86
2021/01/21 06:05:38;;;;;;;3.65;2.13;;;;;;;1.14;80.95;93727.84;5133687;27;19915;-85
2021/01/21 06:08:04;;;;;;;;;;;;;;;1.11;80.92;93733.16;5133959;27;20095;-86
2021/01/21 06:10:33;;;;;;;5.45;2.22;;;;;;;1.18;80.79;93731.69;5133407;27;20315;-86
2021/01/21 06:13:05;;;;;;;5.43;2.35;;;;;;;1.25;81.39;93736.97;5133205;27;20126;-86
2021/01/21 06:15:32;;;;;;;5.15;2.03;;;;;;;1.29;80.35;93745.09;5133205;27;20048;-85
2021/01/21 06:17:59;;;;;;;2.95;1.75;;;;;;;1.31;80.68;93744.00;5133418;27;20039;-86
2021/01/21 06:20:25;;;;;;;;;;;;;;;1.34;80.96;93748.00;5133639;27;20057;-86
2021/01/21 06:22:55;;;;;;;5.03;2.08;;;;;;;1.27;81.21;93750.31;5133195;27;19915;-85
2021/01/21 06:25:22;;;;;;;3.97;2.30;;;;;;;1.31;81.71;93733.88;5132961;27;20054;-86
2021/01/21 06:27:48;;;;;;;;;;;;;;;1.30;80.88;93747.47;5133498;27;20589;-87
2021/01/21 06:30:16;;;;;;;5.65;2.00;;;;;;;1.28;81.55;93746.81;5133176;27;19960;-85
2021/01/21 06:32:49;;;;;;;1.95;1.17;;;;;;;1.18;81.69;93730.88;5133033;27;20174;-86
2021/01/21 06:35:20;;;;;;;3.15;1.70;;;;;;;1.36;81.39;93753.72;5132994;27;20057;-85
2021/01/21 06:37:51;;;;;;;3.10;1.85;;;;;;;1.42;81.25;93749.81;5132623;27;20039;-86
2021/01/21 06:40:20;;;;;;;4.18;1.25;;;;;;;1.46;81.96;93744.38;5132747;27;20039;-86
2021/01/21 06:42:55;;;;;;;4.05;1.33;;;;;;;1.38;80.65;93728.28;5132803;27;20147;-86
2021/01/21 06:45:22;;;;;;;2.80;1.65;;;;;;;1.51;81.84;93738.06;5132566;27;20138;-86
2021/01/21 06:47:50;;;;;;;1.45;0.98;;;;;;;1.59;80.81;93736.41;5132191;27;20082;-87
2021/01/21 06:50:17;;;;;;;3.35;1.73;;;;;;;1.62;80.65;93732.81;5132344;27;20039;-86
2021/01/21 06:52:44;;;;;;;6.05;1.55;;;;;;;1.65;79.72;93724.94;5132745;27;20043;-86
2021/01/21 06:55:11;;;;;;;2.55;1.33;;;;;;;1.74;80.29;93730.88;5132727;27;20131;-87
2021/01/21 06:57:45;;;;;;;6.85;3.45;;;;;;;1.80;79.32;93722.72;5132502;27;20395;-86
2021/01/21 07:00:14;;;;;;;21.75;9.63;;;;;;;1.86;80.03;93728.97;5049687;28;20052;-86
2021/01/21 07:02:42;;;;;;;26.45;10.68;;;;;;;1.93;79.42;93731.69;5071136;28;20481;-86
2021/01/21 07:05:10;;;;;;;13.93;7.93;;;;;;;1.98;79.09;93735.41;5071180;28;20423;-87
2021/01/21 07:08:01;;;;;;;5.68;3.92;;;;;;;2.07;78.83;93725.34;5071325;28;20056;-87
2021/01/21 07:10:31;;;;;;;5.25;4.10;;;;;;;2.10;78.44;93736.00;5067785;28;20075;-86
2021/01/21 07:12:58;;;;;;;8.80;3.58;;;;;;;2.14;78.82;93732.22;5071048;28;20040;-86
2021/01/21 07:15:34;;;;;;;6.43;2.67;;;;;;;2.29;77.34;93735.97;5071050;28;20049;-86
2021/01/21 07:18:01;;;;;;;;;;;;;;;2.36;76.74;93745.41;5071743;28;20040;-86
2021/01/21 07:20:30;;;;;;;3.20;1.90;;;;;;;2.37;77.62;93736.06;5071220;28;20257;-86
2021/01/21 07:23:07;;;;;;;8.07;3.60;;;;;;;2.44;76.81;93733.75;5071021;28;20094;-87
2021/01/21 07:25:34;;;;;;;8.63;3.15;;;;;;;2.61;76.66;93740.53;5070995;28;20045;-87
2021/01/21 07:28:09;;;;;;;6.60;3.35;;;;;;;2.64;75.51;93747.84;5070848;28;20048;-87
2021/01/21 07:30:38;;;;;;;16.23;6.97;;;;;;;2.84;76.12;93744.31;5070875;28;20177;-87
2021/01/21 07:33:21;;;;;;;8.15;4.53;;;;;;;2.84;75.45;93732.44;5070785;28;20079;-88
2021/01/21 07:35:49;;;;;;;5.50;2.67;;;;;;;2.75;75.49;93713.03;5070784;28;20091;-87
2021/01/21 07:38:47;;;;;;;6.38;3.45;;;;;;;3.08;75.32;93751.31;5070681;28;20059;-87
2021/01/21 07:41:50;;;;;;;8.50;4.43;;;;;;;3.26;76.00;93740.28;5070890;28;20098;-87
2021/01/21 07:44:16;;;;;;;7.95;4.03;;;;;;;3.31;75.87;93738.91;5071132;28;20460;-87
2021/01/21 07:46:43;;;;;;;;;;;;;;;3.37;75.17;93734.16;5071063;28;20114;-88
2021/01/21 07:49:22;;;;;;;7.03;3.80;;;;;;;3.34;74.90;93737.78;5070933;28;19916;-88
2021/01/21 07:52:00;;;;;;;45.85;15.38;;;;;;;3.40;75.08;93731.31;5070654;28;20056;-88
2021/01/21 07:54:27;;;;;;;59.30;16.35;;;;;;;3.35;74.29;93719.06;5071170;28;20045;-89
2021/01/21 07:56:53;;;;;;;124.93;36.22;;;;;;;3.55;75.15;93739.13;5070367;28;20408;-89
2021/01/21 07:59:19;;;;;;;133.02;36.55;;;;;;;3.59;74.64;93738.69;5074644;28;20051;-89
2021/01/21 08:01:55;;;;;;;;;;;;;;;3.71;74.00;93735.88;5075387;28;20048;-89
2021/01/21 08:04:21;;;;;;;;;;;;;;;3.77;74.25;93735.25;5075209;28;19920;-89
2021/01/21 08:06:54;;;;;;;50.60;16.02;;;;;;;3.71;73.65;93728.25;5074755;28;20386;-92
2021/01/21 08:09:21;;;;;;;103.78;29.95;;;;;;;3.88;73.71;93740.03;5074436;28;20086;-90
2021/01/21 08:11:48;;;;;;;44.20;15.07;;;;;;;3.96;73.26;93734.19;5074406;28;20060;-91
2021/01/21 08:14:16;;;;;;;143.80;42.10;;;;;;;3.80;74.65;93722.22;5074365;28;20040;-90
2021/01/21 08:16:43;;;;;;;149.75;45.65;;;;;;;3.88;73.80;93734.16;5074554;28;20053;-91
2021/01/21 08:19:10;;;;;;;172.57;56.35;;;;;;;3.99;74.15;93745.78;5074258;28;20044;-92
2021/01/21 08:21:36;;;;;;;235.88;80.72;;;;;;;3.92;73.58;93717.66;5074283;28;20080;-91
2021/01/21 08:24:03;;;;;;;;;;;;;;;4.10;73.28;93735.31;5074572;28;20048;-91
2021/01/21 08:26:32;;;;;;;124.13;44.63;;;;;;;3.85;73.67;93698.91;5074124;28;20302;-91
2021/01/21 08:28:59;;;;;;;178.57;68.40;;;;;;;4.24;73.57;93738.19;5074312;28;20052;-90
2021/01/21 08:31:37;;;;;;;145.52;58.67;;;;;;;4.31;73.56;93741.72;5074325;28;20052;-91
2021/01/21 08:34:07;;;;;;;93.05;39.95;;;;;;;4.45;73.10;93736.94;5074063;28;20040;-91
2021/01/21 08:36:33;;;;;;;67.38;27.30;;;;;;;4.49;72.70;93741.56;5073929;28;20094;-89
2021/01/21 08:39:03;;;;;;;406.50;120.30;;;;;;;4.28;72.50;93701.34;5074057;28;20048;-89
2021/01/21 08:41:31;;;;;;;254.55;66.95;;;;;;;4.62;72.41;93737.72;5074120;28;20486;-87
2021/01/21 08:44:00;;;;;;;262.02;72.32;;;;;;;4.49;72.23;93716.09;5073884;28;20044;-88
2021/01/21 08:46:28;;;;;;;69.47;23.05;;;;;;;4.68;72.35;93735.34;5074233;28;20060;-87
2021/01/21 08:48:54;;;;;;;431.55;123.72;;;;;;;4.66;71.77;93723.75;5073745;28;20048;-88
2021/01/21 08:51:28;;;;;;;193.85;57.92;;;;;;;4.89;71.47;93738.34;5073585;28;20390;-88
2021/01/21 08:54:09;;;;;;;287.02;76.00;;;;;;;5.00;72.12;93748.19;5073645;28;20135;-89
2021/01/21 08:56:36;;;;;;;56.88;19.58;;;;;;;5.03;71.72;93742.78;5073554;28;20051;-89
2021/01/21 08:59:23;;;;;;;74.43;22.30;;;;;;;4.89;71.61;93743.44;5073652;28;20045;-88
2021/01/21 09:01:49;;;;;;;150.02;42.95;;;;;;;4.81;71.65;93739.97;5073500;28;20090;-88
2021/01/21 09:04:23;;;;;;;69.97;20.83;;;;;;;4.91;71.76;93741.53;5073451;28;20094;-87
2021/01/21 09:06:51;;;;;;;13.75;6.07;;;;;;;4.71;72.33;93746.97;5073361;28;20087;-88
2021/01/21 09:09:28;;;;;;;21.15;8.45;;;;;;;4.70;71.99;93742.81;5072647;28;20043;-89
2021/01/21 09:11:56;;;;;;;13.40;5.70;;;;;;;4.72;71.76;93738.38;5073254;28;20480;-87
2021/01/21 09:14:24;;;;;;;12.27;5.40;;;;;;;4.80;72.65;93743.47;5073214;28;20480;-86
2021/01/21 09:16:51;;;;;;;4.30;2.78;;;;;;;4.66;72.22;93747.44;5073396;28;20159;-87
2021/01/21 09:19:39;;;;;;;9.32;3.40;;;;;;;4.74;72.79;93748.38;5073339;28;20579;-87
2021/01/21 09:22:07;;;;;;;4.05;1.75;;;;;;;4.61;72.99;93731.06;5073093;28;20045;-89
2021/01/21 09:24:35;;;;;;;4.13;2.13;;;;;;;4.60;73.66;93742.19;5072942;28;20480;-87
2021/01/21 09:27:13;;;;;;;14.60;4.65;;;;;;;4.49;73.58;93708.47;5073291;28;20049;-87
2021/01/21 09:29:47;;;;;;;4.38;2.13;;;;;;;4.70;73.43;93732.66;5073202;28;20106;-89
2021/01/21 09:32:14;;;;;;;9.10;4.15;;;;;;;4.77;73.10;93736.13;5073080;28;20110;-88
2021/01/21 09:34:51;;;;;;;4.45;2.72;;;;;;;4.70;72.58;93719.13;5073031;28;20044;-87
2021/01/21 09:37:18;;;;;;;19.67;5.82;;;;;;;4.89;72.65;93728.97;5072872;28;20070;-87
2021/01/21 09:39:44;;;;;;;;;;;;;;;5.00;72.63;93715.09;5073676;28;20094;-88
2021/01/21 09:42:10;;;;;;;6.25;2.80;;;;;;;5.05;72.06;93714.63;5072883;28;19916;-89
2021/01/21 09:44:37;;;;;;;8.35;2.80;;;;;;;5.02;72.49;93704.75;5072775;28;20052;-88
2021/01/21 09:47:03;;;;;;;6.50;3.22;;;;;;;4.73;72.42;93671.25;5072716;28;20044;-88
2021/01/21 09:49:29;;;;;;;;;;;;;;;4.93;73.14;93704.78;5073113;28;20396;-88
2021/01/21 09:51:55;;;;;;;7.13;3.75;;;;;;;4.93;73.25;93698.88;5072904;28;19942;-87
2021/01/21 09:54:21;;;;;;;12.30;4.05;;;;;;;5.01;73.22;93705.72;5072539;28;20037;-88
2021/01/21 09:56:48;;;;;;;6.95;3.20;;;;;;;5.00;72.75;93702.38;5072643;28;20045;-88
2021/01/21 09:59:14;;;;;;;9.45;3.58;;;;;;;5.03;72.61;93693.63;5072825;28;20059;-87
2021/01/21 10:01:41;;;;;;;8.15;2.83;;;;;;;5.04;71.85;93687.56;5072513;28;20044;-87
2021/01/21 10:04:07;;;;;;;10.18;3.80;;;;;;;5.03;72.04;93689.31;5072156;28;20048;-88
2021/01/21 10:06:33;;;;;;;30.38;10.73;;;;;;;5.11;72.11;93691.06;5072562;28;20052;-88
2021/01/21 10:09:00;;;;;;;6.60;3.42;;;;;;;5.12;72.78;93686.75;5072234;28;20453;-87
2021/01/21 10:11:26;;;;;;;8.20;2.10;;;;;;;5.11;71.87;93688.50;5072413;28;20399;-87
2021/01/21 10:13:52;;;;;;;4.30;3.40;;;;;;;5.01;71.46;93667.53;5072184;28;20072;-86
2021/01/21 10:16:19;;;;;;;6.95;3.08;;;;;;;5.17;71.83;93692.13;5071854;28;20488;-87
2021/01/21 10:18:46;;;;;;;;;;;;;;;5.12;71.61;93685.00;5072491;28;20037;-86
2021/01/21 10:21:12;;;;;;;8.75;2.78;;;;;;;5.05;72.14;93663.72;5071124;28;19920;-87
2021/01/21 10:23:38;;;;;;;3.80;1.48;;;;;;;5.11;71.38;93674.97;5071830;28;20090;-86
2021/01/21 10:26:04;;;;;;;3.10;1.90;;;;;;;5.08;71.83;93679.44;5071887;28;20070;-85
2021/01/21 10:28:30;;;;;;;;;;;;;;;5.08;71.55;93663.38;5072449;28;20488;-90
2021/01/21 10:30:56;;;;;;;2.05;1.08;;;;;;;5.00;72.06;93660.84;5071842;28;19924;-87
2021/01/21 10:33:23;;;;;;;3.15;1.85;;;;;;;5.07;72.25;93661.78;5071609;28;20064;-88
2021/01/21 10:35:50;;;;;;;5.90;1.15;;;;;;;5.09;71.30;93657.31;5071698;28;20067;-87
2021/01/21 10:38:16;;;;;;;6.53;2.60;;;;;;;5.10;71.70;93656.38;5035367;28;20045;-86
2021/01/21 10:40:42;;;;;;;2.67;1.38;;;;;;;5.07;71.32;93651.59;5041888;28;20432;-85
2021/01/21 10:43:08;;;;;;;5.53;1.90;;;;;;;5.04;71.50;93645.06;5034214;28;20052;-87
2021/01/21 10:45:35;;;;;;;3.72;1.55;;;;;;;5.07;71.67;93644.75;5045712;28;20040;-86
2021/01/21 10:48:01;;;;;;;4.32;1.60;;;;;;;5.12;71.70;93646.00;5045553;28;20052;-86
2021/01/21 10:50:27;;;;;;;2.50;1.50;;;;;;;5.15;71.10;93640.59;5051395;28;20045;-86
2021/01/21 10:52:54;;;;;;;4.93;2.00;;;;;;;5.15;72.02;93622.75;5049711;28;20056;-86
2021/01/21 10:55:20;;;;;;;4.57;3.28;;;;;;;5.15;71.82;93625.31;5041642;28;20067;-86
2021/01/21 10:57:47;;;;;;;;;;;;;;;5.26;71.53;93627.50;5039899;28;20057;-87
2021/01/21 11:00:15;;;;;;;4.93;2.20;;;;;;;5.33;71.56;93625.84;5040464;28;20478;-88
2021/01/21 11:02:41;;;;;;;4.57;1.52;;;;;;;5.34;71.05;93627.44;5041837;28;20055;-86
2021/01/21 11:05:08;;;;;;;7.22;1.55;;;;;;;5.31;71.20;93620.16;5040149;28;20049;-87
2021/01/21 11:07:34;;;;;;;2.50;1.20;;;;;;;5.36;70.70;93617.09;5040216;28;20534;-87
2021/01/21 11:10:01;;;;;;;3.63;1.75;;;;;;;5.43;71.08;93620.56;5041673;28;20041;-87
2021/01/21 11:12:27;;;;;;;6.03;1.80;;;;;;;5.39;70.43;93614.22;5040026;28;20548;-89
2021/01/21 11:14:54;;;;;;;4.93;2.33;;;;;;;5.42;70.93;93618.97;5040209;28;20044;-88
2021/01/21 11:17:21;;;;;;;2.10;1.15;;;;;;;5.44;70.39;93616.25;5041958;28;20036;-88
2021/01/21 11:19:47;;;;;;;10.73;5.55;;;;;;;5.53;70.50;93612.72;5040855;28;20048;-87
2021/01/21 11:22:13;;;;;;;10.65;2.55;;;;;;;5.59;70.73;93608.69;5045190;28;20045;-87
2021/01/21 11:24:39;;;;;;;;;;;;;;;5.62;70.54;93611.69;5051505;28;20401;-88
2021/01/21 11:27:06;;;;;;;3.67;2.00;;;;;;;5.71;70.37;93619.28;5040959;28;19923;-87
2021/01/21 11:29:33;;;;;;;2.85;1.52;;;;;;;5.80;70.31;93613.19;5068758;28;20115;-87
2021/01/21 11:31:59;;;;;;;1.90;1.10;;;;;;;5.79;70.41;93613.34;5069342;28;20469;-87
2021/01/21 11:34:25;;;;;;;;;;;;;;;5.81;70.64;93608.88;5071520;28;20044;-87
2021/01/21 11:36:51;;;;;;;1.83;1.13;;;;;;;5.82;70.26;93608.69;5070826;28;19920;-87
2021/01/21 11:39:18;;;;;;;2.10;1.23;;;;;;;5.95;70.95;93610.69;5070781;28;20048;-88
2021/01/21 11:41:44;;;;;;;5.15;1.45;;;;;;;6.02;70.77;93605.69;5070804;28;20621;-87
2021/01/21 11:44:11;;;;;;;2.78;0.90;;;;;;;6.15;69.14;93603.38;5070539;28;20044;-88
2021/01/21 11:46:37;;;;;;;6.50;2.17;;;;;;;6.21;69.58;93596.00;5070919;28;20040;-88
2021/01/21 11:49:04;;;;;;;3.72;1.40;;;;;;;6.19;69.54;93582.63;5057807;28;20052;-87
2021/01/21 11:51:30;;;;;;;3.03;1.88;;;;;;;6.33;69.56;93594.63;5054241;28;20059;-87